Jack C. Davis Observatory, Carson City, Nevada Weather observations

Data are for observation ending at time listed.
 Day   Time    Ave.   Ave.  Ave.  Vector   Max.   Stn.    Total    Solar   Ave.  
  of    of     Air    Rel.  Wind   Wind    Wind   Baro.  Precip.   Rad.    Soil  
Year   Day     Temp.  Hum.  Speed  Dir.    Gust   Pres.                    Temp. 
2026   (PST)    F      %     mph   deg.    mph     mb.     in.     W/m2     F   
------------------------------------------------------------------------------
 123    1:50   53.0    62    1.1   172      3.3   844.5    0.00       0    999.0
 123    2:00   52.6    62    2.0   243      4.7   844.5    0.00       0    999.0
 123    2:10   52.9    62    1.4   304      3.7   844.4    0.00       0    999.0
 123    2:20   52.5    62    1.2   283      3.8   844.4    0.00       0    999.0
 123    2:30   51.5    64    2.1   312      3.7   844.2    0.00       0    999.0
 123    2:40   51.6    65    4.2   321      7.4   844.1    0.00       0    999.0
 123    2:50   51.5    65    2.2   284      5.0   844.1    0.00       0    999.0
 123    3:00   50.8    65    1.5   242      4.6   844.1    0.00       0    999.0
 123    3:10   50.9    66    2.1   333      5.5   844.2    0.00       0    999.0
 123    3:20   51.1    68    4.2   291      6.9   844.2    0.00       0    999.0
 123    3:30   50.8    70    3.6   296      6.8   844.2    0.00       0    999.0
 123    3:40   50.4    73    3.8   291      7.3   844.1    0.00       0    999.0
 123    3:50   50.5    73    1.8   296      5.6   844.0    0.00       0    999.0
 123    4:00   49.7    74    1.9   349      4.0   844.0    0.00       0    999.0
 123    4:10   49.5    73    2.8   307      3.6   844.0    0.00       0    999.0
 123    4:20   49.4    74    1.5   323      2.9   843.9    0.00       0    999.0
 123    4:30   49.0    76    1.2    22      2.6   843.8    0.00       0    999.0
 123    4:40   48.5    77    1.7   201      3.6   843.9    0.00       0    999.0
 123    4:50   47.8    78    1.8   269      2.9   843.8    0.00       0    999.0
 123    5:00   47.0    78    2.6   289      3.5   843.8    0.00       1    999.0
 123    5:10   46.8    79    2.6   305      4.0   843.7    0.00       2    999.0
 123    5:20   46.8    78    3.0   294      3.8   843.8    0.00       8    999.0
 123    5:30   47.1    74    3.4   273      5.1   843.8    0.00      18    999.0
 123    5:40   47.1    74    3.2   276      4.4   843.8    0.00      33    999.0
 123    5:50   47.9    73    1.0   285      2.1   843.8    0.00      50    999.0
 123    6:00   48.3    74    0.9   303      1.7   843.9    0.00      68    999.0
 123    6:10   48.9    73    0.3   263      1.8   844.0    0.00      90    999.0
 123    6:20   49.6    73    0.9   260      2.3   844.0    0.00     109    999.0
 123    6:30   50.5    71    0.9   120      2.8   844.0    0.00     126    999.0
 123    6:40   50.7    71    0.3    81      1.8   844.0    0.00     133    999.0
 123    6:50   51.0    71    0.8    43      1.8   844.0    0.00     139    999.0
 123    7:00   51.4    71    0.6    87      2.3   843.9    0.00     154    999.0
 123    7:10   51.9    70    0.5   123      2.3   843.9    0.00     162    999.0
 123    7:20   52.8    69    0.6   236      2.3   843.9    0.00     170    999.0
 123    7:30   52.5    70    1.6   109      3.0   843.9    0.00     180    999.0
 123    7:40   52.6    70    0.9   106      3.7   843.8    0.00     194    999.0
 123    7:50   54.1    66    0.2   103      1.4   843.8    0.00     216    999.0
 123    8:00   54.4    64    0.9    35      2.3   843.8    0.00     238    999.0
 123    8:10   55.5    63    0.3    37      2.2   843.7    0.00     249    999.0
 123    8:20   55.6    63    1.6    97      3.4   843.7    0.00     233    999.0
 123    8:30   55.2    64    1.5   125      3.4   843.7    0.00     231    999.0
 123    8:40   56.3    62    2.0   145      3.3   843.7    0.00     321    999.0
 123    8:50   58.1    60    1.1   161      2.9   843.6    0.00     377    999.0
 123    9:00   59.4    58    1.2   127      2.7   843.6    0.00     401    999.0
 123    9:10   59.0    58    2.2   104      4.2   843.5    0.00     449    999.0
 123    9:20   61.1    52    0.9   115      2.3   843.4    0.00     612    999.0
 123    9:30   63.6    44    2.4    35      6.0   843.3    0.00     643    999.0
 123    9:40   64.2    38    3.4   341     11.0   843.3    0.00     554    999.0
 123    9:50   64.1    35    3.9   331     10.3   843.2    0.00     602    999.0
 123   10:00   65.3    33    4.2   342     10.6   843.1    0.00     708    999.0
 123   10:10   65.7    32    4.3   346     11.0   843.0    0.00     820    999.0
 123   10:20   65.4    32    4.6   342     11.1   842.9    0.00     618    999.0
 123   10:30   65.7    32    4.6   330     10.2   842.8    0.00     760    999.0
 123   10:40   66.3    32    3.3   344     10.6   842.7    0.00     541    999.0
 123   10:50   65.9    32    4.4   328     10.9   842.6    0.00     601    999.0
 123   11:00   65.9    32    3.6   347     12.4   842.4    0.00     565    999.0
 123   11:10   67.4    31    3.9   335      9.9   842.2    0.00     778    999.0
 123   11:20   68.9    30    3.8   325      9.7   842.0    0.00    1058    999.0
 123   11:30   68.2    29    5.5   327     12.9   841.8    0.00     612    999.0
 123   11:40   67.5    30    6.1   319     14.2   841.7    0.00     506    999.0
 123   11:50   67.3    30    6.1   330     13.9   841.6    0.00     519    999.0
 123   12:00   67.7    29    6.4   322     13.2   841.4    0.00     577    999.0
 123   12:10   68.4    29    3.9   329     11.7   841.3    0.00     499    999.0
 123   12:20   67.9    29    5.1   336     10.7   841.1    0.00     373    999.0
 123   12:30   68.1    28    5.4   332     12.1   841.1    0.00     674    999.0
 123   12:40   67.9    28    6.4   332     14.3   840.9    0.00     302    999.0
 123   12:50   66.7    29    5.8   330     13.1   840.7    0.00     198    999.0
 123   13:00   67.1    28    4.2   338     10.2   840.7    0.00     293    999.0
 123   13:10   66.6    28    4.6   294      8.1   840.7    0.00     115    999.0
 123   13:20   62.7    38   12.7   262     23.3   840.7    0.01      57    999.0
 123   13:30   57.3    46   13.5   226     27.0   841.2    0.00      27    999.0
 123   13:40   56.7    45   13.6   177     27.2   842.9    0.00      27    999.0
 123   13:50   52.0    63   16.9   175     27.0   843.7    0.01     102    999.0
 123   14:00   50.4    70   11.4   202     22.9   844.2    0.00     140    999.0
 123   14:10   51.1    66    4.8   232     11.2   844.3    0.00      89    999.0
 123   14:20   51.2    67    5.2   237      9.9   844.2    0.00     168    999.0
 123   14:30   51.4    64    7.9   251     17.6   843.3    0.00     173    999.0
 123   14:40   52.4    59    5.4   118     13.0   843.4    0.00     213    999.0
 123   14:50   53.2    57    2.5    42      5.5   843.8    0.00     146    999.0
 123   15:00   52.6    57    7.5   246     14.1   844.0    0.00      91    999.0
 123   15:10   52.1    58    9.2   260     14.6   844.0    0.00     111    999.0
 123   15:20   52.7    56    9.2   253     16.0   843.7    0.00     121    999.0
 123   15:30   52.6    57    9.9   245     17.8   843.2    0.00     168    999.0
 123   15:40   53.7    57    4.4   214      9.7   843.2    0.00     204    999.0
 123   15:50   55.1    52    5.9   255     12.4   842.9    0.00     295    999.0
 123   16:00   55.6    48    3.9   274     11.1   842.7    0.00     258    999.0
 123   16:10   55.6    46    5.3    98     11.3   842.5    0.00     291    999.0
 123   16:20   56.9    42    4.0   119      9.1   842.2    0.00     410    999.0
 123   16:30   57.1    43    5.7   105     10.0   842.1    0.00     251    999.0
 123   16:40   56.4    45    4.4    84      8.6   842.1    0.00     198    999.0
 123   16:50   56.0    48    4.2    87      8.7   842.2    0.00     128    999.0
 123   17:00   55.2    52    6.9   114     13.9   842.3    0.00     175    999.0
 123   17:10   55.2    52    8.7   154     14.0   842.3    0.00     120    999.0
 123   17:20   55.5    50    7.0   178     13.6   842.6    0.00      88    999.0
 123   17:30   54.5    54    5.8   136     10.7   842.8    0.00      67    999.0
 123   17:40   53.8    56    5.1   138     10.1   843.1    0.00      49    999.0
 123   17:50   53.5    57    3.8   156      7.4   843.2    0.00      34    999.0
 123   18:00   53.3    59    2.0   213      4.2   843.1    0.00      21    999.0
 123   18:10   52.8    62    1.6   288      2.6   842.9    0.00      13    999.0
 123   18:20   52.3    63    2.8   302      5.6   842.6    0.00      15    999.0
 123   18:30   52.6    62    0.8   318      2.6   842.5    0.00      24    999.0
 123   18:40   52.5    58    1.6   292      4.7   842.3    0.00      15    999.0
 123   18:50   53.2    54    1.4    43      3.5   842.2    0.00       5    999.0
 123   19:00   52.7    54    3.3   294      5.2   842.2    0.00       2    999.0
 123   19:10   52.1    56    1.6   301      3.4   842.1    0.00       1    999.0
 123   19:20   52.0    57    2.1   250      4.3   842.2    0.00       0    999.0
 123   19:30   51.2    61    3.9   200      8.3   842.4    0.00       0    999.0
 123   19:40   51.3    59    2.5   255      5.0   842.5    0.00       0    999.0
 123   19:50   50.7    60    3.0   297      4.6   842.5    0.00       0    999.0
 123   20:00   49.0    63    3.5   283      5.0   842.6    0.00       0    999.0
 123   20:10   48.7    63    3.9   269      5.5   842.8    0.00       0    999.0
 123   20:20   48.7    63    3.6   280      4.8   842.8    0.00       0    999.0
 123   20:30   48.7    63    2.4   297      3.6   842.9    0.00       0    999.0
 123   20:40   49.1    61    2.2   316      3.1   842.9    0.00       0    999.0
 123   20:50   49.7    59    2.6   272      3.6   843.0    0.00       0    999.0
 123   21:00   49.0    61    2.9   255      3.9   843.1    0.00       0    999.0
 123   21:10   48.1    63    4.0   261      5.5   842.9    0.00       0    999.0
 123   21:20   47.6    65    2.7   299      4.3   842.9    0.00       0    999.0
 123   21:30   46.7    66    3.3   284      5.8   842.8    0.00       0    999.0
 123   21:40   45.9    67    4.5   270      5.4   842.8    0.00       0    999.0
 123   21:50   45.5    68    4.1   274      5.9   842.7    0.00       0    999.0
 123   22:00   45.9    68    4.9   268      6.4   842.6    0.00       0    999.0
 123   22:10   46.1    69    3.2   272      4.5   842.5    0.00       0    999.0
 123   22:20   45.9    69    2.5   273      3.7   842.5    0.00       0    999.0
 123   22:30   47.1    68    2.0   258      3.1   842.5    0.00       0    999.0
 123   22:40   47.5    67    1.9   268      2.7   842.6    0.00       0    999.0
 123   22:50   47.7    69    3.0   301      4.0   842.5    0.00       0    999.0
 123   23:00   46.9    72    2.9   285      3.9   842.4    0.00       0    999.0
 123   23:10   47.0    72    1.0     8      3.0   842.3    0.00       0    999.0
 123   23:20   47.7    71    1.9    48      4.2   842.4    0.00       0    999.0
 123   23:30   47.1    73    2.8   262      4.2   842.5    0.00       0    999.0
 123   23:40   47.1    72    2.6   276      5.0   842.5    0.00       0    999.0
 123   23:50   47.0    71    1.5   319      3.9   842.5    0.00       0    999.0
 124    0:00   47.2    68    1.1   284      3.2   842.4    0.00       0    999.0
 124    0:10   46.8    69    1.9   310      3.7   842.3    0.00       0    999.0
 124    0:20   47.2    69    2.3    60      4.6   842.4    0.00       0    999.0
 124    0:30   48.3    66    1.6    48      5.4   842.3    0.00       0    999.0
 124    0:40   47.6    67    2.3   331      4.1   842.2    0.00       0    999.0
 124    0:50   46.9    68    2.9   357      5.0   842.1    0.00       0    999.0
 124    1:00   47.3    66    1.7   352      3.7   842.2    0.00       0    999.0
 124    1:10   46.9    67    3.0   307      4.5   842.2    0.00       0    999.0
 124    1:20   46.8    68    2.9   324      5.8   842.1    0.00       0    999.0
 124    1:30   46.1    71    2.7   307      3.9   842.1    0.00       0    999.0
 124    1:40   46.6    68    2.6   306      4.7   842.0    0.00       0    999.0

Return to Yerington, Nevada graphs page.


Western Regional Climate Center,wrcc@dri.edu